Time;durP1;ratioP1;P1;durP2;ratioP2;P2;SDS_P1;SDS_P2;PMS_P1;PMS_P2;Temp;Humidity;BMP_temperature;BMP_pressure;BME280_temperature;BME280_humidity;BME280_pressure;Samples;Min_cycle;Max_cycle;Signal;HPM_P1;HPM_P2
2022/10/11 00:01:25;;;;;;;14.60;8.80;;;;;;;2.95;90.66;102015.52;104592;1281;60652;-74
2022/10/11 00:03:54;;;;;;;14.40;8.70;;;;;;;2.84;92.19;102016.24;104663;1277;62575;-74
2022/10/11 00:06:23;;;;;;;15.80;8.20;;;;;;;2.90;92.50;102010.46;104673;1271;71194;-75
2022/10/11 00:08:51;;;;;;;15.10;8.80;;;;;;;2.92;91.92;102005.08;104650;1280;59717;-81
2022/10/11 00:11:20;;;;;;;13.30;8.10;;;;;;;2.92;91.66;102004.06;104686;1276;63297;-75
2022/10/11 00:13:48;;;;;;;16.00;8.60;;;;;;;3.01;91.37;102003.86;104629;1277;61361;-77
2022/10/11 00:16:17;;;;;;;15.80;8.50;;;;;;;2.96;90.66;102007.08;104654;1270;59242;-74
2022/10/11 00:18:46;;;;;;;13.50;7.40;;;;;;;2.89;91.45;102006.67;104670;1277;74481;-75
2022/10/11 00:21:15;;;;;;;17.00;8.50;;;;;;;2.80;90.81;102005.33;104695;1280;61544;-79
2022/10/11 00:23:44;;;;;;;14.50;7.80;;;;;;;2.70;92.91;102004.99;104695;1276;61753;-79
2022/10/11 00:26:13;;;;;;;11.60;7.60;;;;;;;2.80;92.82;102007.73;104647;1277;73702;-74
2022/10/11 00:28:42;;;;;;;12.50;8.50;;;;;;;2.92;92.20;102005.41;104651;1278;62234;-75
2022/10/11 00:31:17;;;;;;;15.60;8.00;;;;;;;2.99;91.74;101999.61;104638;1281;59187;-77
2022/10/11 00:33:45;;;;;;;18.40;9.80;;;;;;;2.98;91.85;101999.80;104687;1273;72748;-77
2022/10/11 00:36:16;;;;;;;24.70;12.80;;;;;;;3.05;91.16;101993.46;104680;1285;62010;-77
2022/10/11 00:38:45;;;;;;;21.70;12.30;;;;;;;3.08;91.25;101994.27;104712;1273;70548;-79
2022/10/11 00:41:15;;;;;;;17.70;9.40;;;;;;;3.00;90.60;101990.82;104679;1273;72938;-75
2022/10/11 00:43:44;;;;;;;14.20;8.60;;;;;;;2.98;91.17;101990.33;104693;1277;61893;-76
2022/10/11 00:46:26;;;;;;;16.40;8.20;;;;;;;2.97;91.02;101987.25;104692;1276;58982;-75
2022/10/11 00:49:01;;;;;;;18.70;8.70;;;;;;;2.93;91.12;101986.30;104748;1276;62957;-77
2022/10/11 00:51:42;;;;;;;12.40;7.50;;;;;;;2.88;91.19;101987.78;104637;1277;61135;-74
2022/10/11 00:54:15;;;;;;;12.80;7.70;;;;;;;2.78;91.19;101985.21;104743;1278;60321;-73
2022/10/11 00:56:49;;;;;;;12.90;7.90;;;;;;;2.70;91.53;101984.18;104714;1277;63300;-76
2022/10/11 00:59:23;;;;;;;13.00;8.10;;;;;;;2.59;91.96;101982.15;104701;1276;61295;-74
2022/10/11 01:01:52;;;;;;;15.00;9.20;;;;;;;2.51;92.23;101977.65;104543;1281;59084;-72
2022/10/11 01:04:55;;;;;;;14.40;8.90;;;;;;;2.44;92.94;101974.35;104589;1273;71926;-73
2022/10/11 01:07:46;;;;;;;14.60;8.20;;;;;;;2.45;92.65;101967.98;104700;1277;71203;-73
2022/10/11 01:10:17;;;;;;;16.50;8.70;;;;;;;2.56;91.93;101964.84;104730;1271;59979;-73
2022/10/11 01:13:02;;;;;;;15.00;8.60;;;;;;;2.63;91.34;101957.48;104676;1277;73869;-73
2022/10/11 01:16:10;;;;;;;18.60;9.10;;;;;;;2.69;91.27;101949.96;104657;1276;59212;-73
2022/10/11 01:22:36;;;;;;;16.70;9.00;;;;;;;2.45;91.80;101952.67;104570;1277;73420;-80
2022/10/11 01:25:23;;;;;;;10.40;7.10;;;;;;;2.33;92.26;101950.66;104445;1277;69931;-78
2022/10/11 01:28:40;;;;;;;14.70;7.80;;;;;;;2.21;92.11;101956.71;104558;1277;59977;-80
2022/10/11 01:31:33;;;;;;;10.80;7.10;;;;;;;2.11;93.24;101958.95;104539;1277;73921;-81
2022/10/11 01:34:39;;;;;;;11.50;7.80;;;;;;;2.10;94.49;101960.00;104572;1271;59573;-81
2022/10/11 01:37:34;;;;;;;16.70;7.90;;;;;;;2.23;94.40;101957.54;104584;1276;59638;-81
2022/10/11 01:40:35;;;;;;;15.90;7.00;;;;;;;2.31;93.32;101955.84;104649;1276;73500;-83
2022/10/11 01:43:05;;;;;;;13.00;7.90;;;;;;;2.32;92.80;101956.50;104622;1280;61516;-83
2022/10/11 01:45:35;;;;;;;14.70;8.20;;;;;;;2.31;92.82;101951.20;104603;1281;60128;-81
2022/10/11 01:48:11;;;;;;;15.20;7.70;;;;;;;2.35;93.12;101947.35;104511;1285;73252;-80
2022/10/11 01:50:50;;;;;;;12.90;8.10;;;;;;;2.45;92.71;101946.98;104537;1285;61787;-82
2022/10/11 01:53:40;;;;;;;15.00;8.20;;;;;;;2.58;91.63;101947.60;104532;1285;57438;-81
2022/10/11 01:56:37;;;;;;;13.50;8.20;;;;;;;2.55;90.98;101946.11;104558;1285;63852;-81
2022/10/11 01:59:27;;;;;;;13.00;8.20;;;;;;;2.46;90.55;101946.96;104577;1280;72737;-82
2022/10/11 02:02:17;;;;;;;15.10;7.80;;;;;;;2.40;90.78;101943.80;104658;1277;69625;-84
2022/10/11 02:05:16;;;;;;;14.20;7.80;;;;;;;2.31;91.62;101942.78;104627;1278;73675;-81
2022/10/11 02:07:55;;;;;;;13.00;7.80;;;;;;;2.19;91.24;101942.13;104649;1285;61498;-83
2022/10/11 02:10:41;;;;;;;17.90;8.70;;;;;;;2.09;91.91;101943.88;104656;1285;61279;-83
2022/10/11 02:13:30;;;;;;;14.20;8.30;;;;;;;2.02;92.63;101939.35;104701;1277;62849;-81
2022/10/11 02:16:04;;;;;;;15.80;8.90;;;;;;;1.98;92.67;101937.70;104676;1268;71387;-80
2022/10/11 02:18:42;;;;;;;12.40;7.90;;;;;;;1.93;92.81;101935.03;104672;1273;70215;-82
2022/10/11 02:21:22;;;;;;;13.50;8.80;;;;;;;1.92;92.77;101934.70;104614;1277;71825;-80
2022/10/11 02:24:09;;;;;;;13.80;8.40;;;;;;;1.91;92.70;101935.25;104612;1277;59608;-82
2022/10/11 02:26:42;;;;;;;12.60;8.20;;;;;;;1.87;92.83;101933.58;104641;1277;60974;-81
2022/10/11 02:29:15;;;;;;;17.50;8.20;;;;;;;1.82;92.53;101936.23;104658;1280;62273;-82
2022/10/11 02:31:45;;;;;;;14.10;7.80;;;;;;;1.79;93.11;101933.55;104537;1268;70368;-83
2022/10/11 02:34:24;;;;;;;14.50;7.60;;;;;;;1.78;93.68;101935.30;104557;1276;68612;-83
2022/10/11 02:37:15;;;;;;;16.20;8.90;;;;;;;1.77;93.84;101935.64;104506;1286;63254;-81
2022/10/11 02:40:02;;;;;;;15.10;8.40;;;;;;;1.73;93.82;101939.48;104518;1277;58851;-80
2022/10/11 02:42:38;;;;;;;15.80;8.20;;;;;;;1.68;93.44;101933.89;104563;1285;61241;-81
2022/10/11 02:45:19;;;;;;;11.60;7.40;;;;;;;1.66;93.55;101932.91;104511;1285;71654;-84
2022/10/11 02:47:48;;;;;;;16.10;8.80;;;;;;;1.65;93.63;101928.98;104448;1277;70924;-82
2022/10/11 02:50:16;;;;;;;15.90;8.20;;;;;;;1.65;94.06;101930.86;104497;1271;69351;-82
2022/10/11 02:52:45;;;;;;;14.60;9.00;;;;;;;1.64;93.99;101928.13;104440;1278;71821;-82
2022/10/11 02:55:13;;;;;;;15.00;9.60;;;;;;;1.61;93.34;101926.80;104520;1279;60951;-84
2022/10/11 02:57:43;;;;;;;20.50;10.80;;;;;;;1.59;93.47;101929.08;104537;1286;57543;-81
2022/10/11 03:00:13;;;;;;;19.40;11.70;;;;;;;1.55;93.83;101929.11;104537;1271;72907;-82
2022/10/11 03:02:41;;;;;;;18.60;10.70;;;;;;;1.53;93.58;101926.40;104546;1286;70984;-83
2022/10/11 03:05:10;;;;;;;21.10;12.30;;;;;;;1.55;93.60;101926.73;104672;1273;68937;-82
2022/10/11 03:07:38;;;;;;;18.60;10.90;;;;;;;1.56;93.44;101929.78;104789;1280;74349;-82
2022/10/11 03:10:08;;;;;;;18.60;10.60;;;;;;;1.53;93.28;101929.50;104815;1285;59595;-78
2022/10/11 03:12:37;;;;;;;20.80;10.70;;;;;;;1.52;93.43;101929.34;104968;1284;60698;-80
2022/10/11 03:15:06;;;;;;;17.40;10.60;;;;;;;1.50;93.96;101931.77;104636;1280;73574;-82
2022/10/11 03:17:35;;;;;;;18.90;10.70;;;;;;;1.46;93.36;101929.07;104814;1272;72556;-83
2022/10/11 03:20:06;;;;;;;19.30;12.40;;;;;;;1.41;93.80;101925.73;104751;1277;71438;-82
2022/10/11 03:22:35;;;;;;;20.60;11.20;;;;;;;1.39;94.07;101926.11;104684;1286;73813;-81
2022/10/11 03:25:04;;;;;;;17.20;11.20;;;;;;;1.38;94.18;101924.74;104705;1276;60613;-80
2022/10/11 03:27:33;;;;;;;19.20;10.80;;;;;;;1.37;94.47;101918.92;104774;1278;61210;-81
2022/10/11 03:30:02;;;;;;;17.50;10.50;;;;;;;1.37;94.31;101918.24;105139;1276;73078;-79
2022/10/11 03:32:32;;;;;;;16.50;10.40;;;;;;;1.35;93.98;101915.67;106211;1277;71181;-82
2022/10/11 03:35:01;;;;;;;19.60;10.90;;;;;;;1.38;94.33;101915.83;105584;1276;59404;-81
2022/10/11 03:37:30;;;;;;;14.80;9.70;;;;;;;1.36;94.19;101909.84;104947;1277;71898;-82
2022/10/11 03:39:58;;;;;;;23.10;13.40;;;;;;;1.38;94.45;101912.05;104821;1276;59681;-84
2022/10/11 03:42:28;;;;;;;19.70;11.70;;;;;;;1.39;94.41;101909.98;104589;1284;59646;-81
2022/10/11 03:44:58;;;;;;;19.70;12.70;;;;;;;1.37;93.69;101910.17;104696;1285;74025;-84
2022/10/11 03:47:27;;;;;;;21.10;11.50;;;;;;;1.33;93.98;101907.98;104702;1280;70276;-83
2022/10/11 03:49:55;;;;;;;19.30;11.20;;;;;;;1.31;94.71;101905.62;104683;1285;69699;-83
2022/10/11 03:52:24;;;;;;;17.90;10.20;;;;;;;1.35;94.52;101900.59;104727;1276;71904;-83
2022/10/11 03:54:52;;;;;;;21.80;10.90;;;;;;;1.33;94.57;101899.59;104690;1277;59884;-83
2022/10/11 03:57:21;;;;;;;20.80;11.70;;;;;;;1.31;94.44;101899.79;104675;1277;59512;-83
2022/10/11 03:59:50;;;;;;;21.30;12.60;;;;;;;1.31;94.84;101898.27;104689;1285;72941;-84
2022/10/11 04:02:18;;;;;;;20.30;11.60;;;;;;;1.31;94.96;101895.16;104694;1275;70125;-83
2022/10/11 04:04:47;;;;;;;22.20;13.30;;;;;;;1.31;95.20;101896.19;104786;1281;70392;-85
2022/10/11 04:07:15;;;;;;;25.30;14.60;;;;;;;1.32;95.60;101896.52;104826;1285;73534;-82
2022/10/11 04:09:44;;;;;;;26.80;15.90;;;;;;;1.31;95.13;101897.39;104796;1281;59206;-82
2022/10/11 04:12:13;;;;;;;27.70;16.40;;;;;;;1.31;95.50;101896.53;104813;1280;60500;-83
2022/10/11 04:14:41;;;;;;;25.00;13.70;;;;;;;1.30;95.66;101899.46;104820;1270;73342;-81
2022/10/11 04:17:10;;;;;;;26.40;13.80;;;;;;;1.28;95.44;101898.30;104937;1281;70591;-83
2022/10/11 04:19:39;;;;;;;31.90;15.20;;;;;;;1.29;95.30;101899.82;105075;1282;69728;-83
2022/10/11 04:22:07;;;;;;;28.80;15.00;;;;;;;1.30;95.21;101899.64;105186;1281;71855;-82
2022/10/11 04:24:36;;;;;;;30.60;16.40;;;;;;;1.30;95.09;101900.48;105135;1271;58760;-82
2022/10/11 04:27:05;;;;;;;31.40;17.80;;;;;;;1.30;95.44;101901.88;106011;1275;60469;-83
2022/10/11 04:29:33;;;;;;;32.70;18.00;;;;;;;1.35;96.27;101904.52;105699;1274;72402;-82
2022/10/11 04:32:02;;;;;;;36.30;18.40;;;;;;;1.38;96.21;101903.30;104915;1272;70888;-86
2022/10/11 04:34:30;;;;;;;32.60;16.90;;;;;;;1.41;95.55;101900.32;104844;1274;70431;-83
2022/10/11 04:36:59;;;;;;;33.40;17.90;;;;;;;1.45;95.62;101903.52;104831;1271;71022;-82
2022/10/11 04:39:28;;;;;;;27.70;16.00;;;;;;;1.49;95.48;101901.58;104872;1281;60039;-85
2022/10/11 04:41:56;;;;;;;29.40;16.00;;;;;;;1.53;95.22;101903.58;104830;1275;61756;-83
2022/10/11 04:44:25;;;;;;;25.80;15.60;;;;;;;1.54;94.97;101903.05;104708;1271;71331;-80
2022/10/11 04:46:53;;;;;;;28.30;13.90;;;;;;;1.54;94.89;101900.46;104763;1280;72134;-81
2022/10/11 04:49:23;;;;;;;25.80;15.00;;;;;;;1.58;94.47;101897.65;104781;1285;67733;-81
2022/10/11 04:51:52;;;;;;;26.90;16.20;;;;;;;1.67;94.21;101897.33;104723;1277;71904;-82
2022/10/11 04:54:20;;;;;;;32.30;16.10;;;;;;;1.78;93.99;101900.42;104754;1281;62217;-81
2022/10/11 04:56:49;;;;;;;26.60;14.20;;;;;;;1.87;94.15;101897.86;104717;1278;58961;-83
2022/10/11 04:59:18;;;;;;;28.80;14.40;;;;;;;1.96;93.76;101899.60;104731;1277;70798;-84
2022/10/11 05:01:47;;;;;;;33.00;16.90;;;;;;;2.04;93.59;101899.97;104695;1277;73076;-81
2022/10/11 05:04:15;;;;;;;30.30;16.10;;;;;;;2.07;93.20;101901.45;104712;1285;69562;-83
2022/10/11 05:06:44;;;;;;;26.30;16.30;;;;;;;2.10;92.69;101899.52;104667;1280;71136;-82
2022/10/11 05:09:13;;;;;;;32.00;17.00;;;;;;;2.14;93.59;101900.46;104634;1277;63280;-81
2022/10/11 05:11:41;;;;;;;37.20;19.20;;;;;;;2.22;94.02;101905.13;104708;1284;61619;-81
2022/10/11 05:14:10;;;;;;;36.30;17.40;;;;;;;2.31;94.39;101905.48;104721;1277;71486;-81
2022/10/11 05:16:38;;;;;;;30.80;16.70;;;;;;;2.41;94.19;101902.17;104666;1277;71381;-80
2022/10/11 05:19:07;;;;;;;36.30;17.90;;;;;;;2.54;94.02;101905.89;104254;1286;619054;-84
2022/10/11 05:21:36;;;;;;;35.50;16.80;;;;;;;2.64;93.80;101905.68;104648;1277;73785;-82
2022/10/11 05:24:05;;;;;;;37.30;16.30;;;;;;;2.79;93.72;101908.82;104642;1277;62089;-81
2022/10/11 05:26:34;;;;;;;29.60;15.40;;;;;;;2.91;93.34;101905.11;104697;1277;59408;-82
2022/10/11 05:29:02;;;;;;;29.30;16.30;;;;;;;3.02;92.99;101907.63;104676;1276;73527;-81
2022/10/11 05:31:31;;;;;;;36.00;16.20;;;;;;;3.16;92.26;101908.17;104697;1285;70157;-79
2022/10/11 05:34:00;;;;;;;33.30;15.40;;;;;;;3.31;91.70;101903.35;104679;1276;68883;-80
2022/10/11 05:36:29;;;;;;;28.40;14.30;;;;;;;3.47;91.12;101902.66;104707;1273;71299;-81
2022/10/11 05:38:57;;;;;;;27.60;15.20;;;;;;;3.63;90.10;101902.59;104644;1285;62218;-80
2022/10/11 05:41:27;;;;;;;35.40;15.90;;;;;;;3.77;89.87;101901.75;104755;1276;59160;-80
2022/10/11 05:43:56;;;;;;;31.70;15.50;;;;;;;3.91;89.58;101900.01;104693;1285;62972;-82
2022/10/11 05:46:25;;;;;;;27.90;16.50;;;;;;;4.05;88.95;101902.23;104716;1279;61494;-82
2022/10/11 05:48:53;;;;;;;31.00;15.30;;;;;;;4.20;87.78;101904.06;104691;1280;69715;-80
2022/10/11 05:51:22;;;;;;;32.20;14.20;;;;;;;4.35;87.04;101904.52;104735;1285;63586;-87
2022/10/11 05:53:51;;;;;;;34.40;19.50;;;;;;;4.54;85.88;101905.70;104916;1277;60012;-84
2022/10/11 05:56:23;;;;;;;33.30;17.00;;;;;;;4.67;85.56;101900.20;104995;1277;59212;-84
2022/10/11 05:58:53;;;;;;;34.40;19.90;;;;;;;4.81;85.28;101904.09;105199;1278;73613;-84
2022/10/11 06:01:27;;;;;;;36.90;17.10;;;;;;;4.94;84.29;101902.66;105371;1278;61649;-83
2022/10/11 06:03:56;;;;;;;38.10;18.00;;;;;;;5.06;83.76;101906.80;104709;1286;60205;-84
2022/10/11 06:06:25;;;;;;;40.30;15.90;;;;;;;5.18;83.31;101903.66;104761;1276;64264;-88
2022/10/11 06:08:54;;;;;;;35.90;17.40;;;;;;;5.37;82.93;101908.42;104712;1274;58715;-92
2022/10/11 06:11:26;;;;;;;34.80;17.90;;;;;;;5.50;82.38;101906.46;104707;1271;60532;-90
2022/10/11 06:13:57;;;;;;;35.60;18.90;;;;;;;5.64;81.90;101905.80;104640;1277;72737;-85
2022/10/11 06:16:26;;;;;;;36.70;17.00;;;;;;;5.77;81.50;101907.30;104454;1286;61976;-85
2022/10/11 06:18:56;;;;;;;35.40;17.10;;;;;;;5.85;81.17;101907.05;104672;1278;70542;-82
2022/10/11 06:21:25;;;;;;;34.10;16.30;;;;;;;6.00;80.29;101904.67;104713;1280;64179;-86
2022/10/11 06:23:53;;;;;;;27.30;14.80;;;;;;;6.15;79.71;101903.42;104624;1284;60757;-87
2022/10/11 06:26:29;;;;;;;25.90;15.10;;;;;;;6.30;78.67;101897.73;104746;1280;59116;-87
2022/10/11 06:28:59;;;;;;;29.10;15.50;;;;;;;6.46;78.18;101894.56;104595;1272;62197;-84
2022/10/11 06:31:28;;;;;;;28.20;12.60;;;;;;;6.56;77.39;101894.87;104547;1277;70347;-84
2022/10/11 06:33:58;;;;;;;28.50;15.40;;;;;;;6.75;77.14;101897.98;104559;1277;70193;-84
2022/10/11 06:36:27;;;;;;;31.80;16.20;;;;;;;6.92;76.37;101895.59;104587;1277;63775;-82
2022/10/11 06:38:56;;;;;;;25.80;13.40;;;;;;;7.11;75.78;101899.38;104590;1285;58807;-85
2022/10/11 06:41:28;;;;;;;25.50;12.80;;;;;;;7.26;75.55;101900.36;104783;1277;61442;-85
2022/10/11 06:43:56;;;;;;;20.40;11.30;;;;;;;7.39;75.17;101899.31;105815;1280;64028;-83
2022/10/11 06:46:27;;;;;;;23.50;11.10;;;;;;;7.54;74.43;101898.89;105971;1280;61618;-83
2022/10/11 06:48:56;;;;;;;21.20;10.40;;;;;;;7.65;74.74;101901.88;105910;1284;69279;-84
2022/10/11 06:51:24;;;;;;;23.80;11.20;;;;;;;7.76;74.62;101904.04;104892;1280;74210;-84
2022/10/11 06:53:56;;;;;;;18.30;10.30;;;;;;;7.86;73.17;101906.04;104710;1284;57870;-83
2022/10/11 06:56:27;;;;;;;17.80;9.20;;;;;;;7.86;72.78;101905.02;104818;1285;59128;-90
2022/10/11 06:59:02;;;;;;;23.00;10.90;;;;;;;7.97;73.20;101909.58;104917;1272;64050;-87
2022/10/11 07:01:32;;;;;;;20.30;10.30;;;;;;;8.16;72.91;101909.46;104947;1278;70428;-89
2022/10/11 07:04:01;;;;;;;16.80;10.10;;;;;;;8.28;72.84;101906.16;104992;1278;68798;-91
2022/10/11 07:06:30;;;;;;;21.30;11.90;;;;;;;8.34;72.70;101904.34;104637;1278;63646;-88
2022/10/11 07:09:00;;;;;;;26.00;13.80;;;;;;;8.45;72.60;101902.48;104732;1277;59108;-89
2022/10/11 07:11:29;;;;;;;32.70;13.80;;;;;;;8.60;71.69;101903.90;104825;1278;60382;-91
2022/10/11 07:14:03;;;;;;;29.10;13.50;;;;;;;8.80;71.26;101900.39;104881;1277;73470;-85
2022/10/11 07:16:45;;;;;;;31.50;12.70;;;;;;;8.94;70.58;101896.43;105034;1275;62732;-90
2022/10/11 07:19:14;;;;;;;25.30;13.90;;;;;;;9.16;70.53;101892.58;105295;1278;59226;-90
2022/10/11 07:21:43;;;;;;;19.20;9.20;;;;;;;9.43;68.08;101893.73;104886;1273;73093;-90
2022/10/11 07:24:11;;;;;;;13.50;7.10;;;;;;;9.58;65.63;101893.71;104808;1285;61102;-88
2022/10/11 07:26:41;;;;;;;17.30;7.00;;;;;;;9.74;65.04;101895.17;104794;1277;59078;-89
2022/10/11 07:29:10;;;;;;;22.40;9.00;;;;;;;9.93;64.66;101892.09;104736;1278;63048;-85
2022/10/11 07:31:41;;;;;;;19.10;9.20;;;;;;;10.09;64.31;101890.42;104651;1277;60967;-87
2022/10/11 07:34:10;;;;;;;17.10;7.90;;;;;;;10.18;63.06;101889.61;104758;1280;59144;-86
2022/10/11 07:36:39;;;;;;;18.00;8.10;;;;;;;10.23;62.71;101887.80;104697;1283;62713;-87
2022/10/11 07:39:09;;;;;;;16.40;8.60;;;;;;;10.37;62.61;101881.17;104804;1280;59182;-87
2022/10/11 07:41:37;;;;;;;19.10;8.10;;;;;;;10.51;62.95;101881.12;104707;1277;59084;-87
2022/10/11 07:44:13;;;;;;;17.10;8.70;;;;;;;10.58;62.35;101881.25;104678;1277;72713;-86
2022/10/11 07:46:42;;;;;;;19.90;9.10;;;;;;;10.76;61.87;101879.23;104570;1283;61863;-82
2022/10/11 07:49:10;;;;;;;21.70;8.60;;;;;;;10.93;61.82;101882.30;104680;1278;69482;-84
2022/10/11 07:51:39;;;;;;;25.40;9.40;;;;;;;11.03;61.71;101883.48;104563;1283;63601;-83
2022/10/11 07:54:08;;;;;;;19.60;9.00;;;;;;;11.10;60.43;101883.61;104678;1278;61270;-81
2022/10/11 07:56:37;;;;;;;20.00;9.60;;;;;;;11.19;60.39;101880.67;104543;1288;60277;-83
2022/10/11 07:59:06;;;;;;;23.00;9.10;;;;;;;11.30;60.97;101875.89;104630;1271;74641;-85
2022/10/11 08:01:35;;;;;;;21.40;9.40;;;;;;;11.37;59.78;101867.98;104801;1281;71634;-83
2022/10/11 08:04:04;;;;;;;18.00;7.60;;;;;;;11.41;59.71;101867.21;104666;1277;59527;-86
2022/10/11 08:06:35;;;;;;;20.40;8.90;;;;;;;11.52;59.20;101867.66;104753;1279;63314;-85
2022/10/11 08:09:05;;;;;;;23.80;9.70;;;;;;;11.66;59.06;101867.66;104829;1270;61315;-83
2022/10/11 08:11:37;;;;;;;23.80;9.70;;;;;;;11.83;60.12;101868.06;104724;1278;61566;-83
2022/10/11 08:14:07;;;;;;;23.20;8.90;;;;;;;12.05;60.30;101867.85;104849;1277;63326;-84
2022/10/11 08:16:38;;;;;;;17.00;7.80;;;;;;;12.25;59.13;101861.90;104585;1279;71514;-83
2022/10/11 08:19:07;;;;;;;22.60;9.10;;;;;;;12.35;58.17;101866.20;104748;1280;70903;-84
2022/10/11 08:21:35;;;;;;;23.20;8.50;;;;;;;12.50;58.35;101865.11;104725;1285;73843;-82
2022/10/11 08:24:05;;;;;;;18.80;7.00;;;;;;;12.63;57.83;101863.73;104514;1280;59221;-82
2022/10/11 08:26:34;;;;;;;14.70;7.20;;;;;;;12.70;55.39;101865.89;104737;1281;61256;-83
2022/10/11 08:29:03;;;;;;;14.40;7.60;;;;;;;12.71;55.13;101864.50;104789;1281;72623;-83
2022/10/11 08:31:34;;;;;;;18.70;7.70;;;;;;;12.84;56.14;101867.30;104602;1287;72128;-83
2022/10/11 08:34:02;;;;;;;16.30;7.50;;;;;;;13.04;55.71;101863.05;104814;1280;71484;-86
2022/10/11 08:36:31;;;;;;;18.70;7.00;;;;;;;13.23;54.93;101860.64;104852;1285;62539;-85
2022/10/11 08:39:00;;;;;;;16.50;8.20;;;;;;;13.42;54.36;101862.20;104797;1277;58850;-82
2022/10/11 08:41:50;;;;;;;20.60;8.30;;;;;;;13.57;54.04;101857.17;104680;1277;61288;-82
2022/10/11 08:44:34;;;;;;;17.10;8.20;;;;;;;13.70;52.51;101849.27;104649;1277;72696;-85
2022/10/11 08:48:03;;;;;;;18.30;7.40;;;;;;;13.83;52.57;101850.88;104749;1283;63503;-82
2022/10/11 08:50:31;;;;;;;14.80;7.30;;;;;;;13.94;52.88;101846.58;104631;1280;70498;-83
2022/10/11 08:53:15;;;;;;;13.40;6.20;;;;;;;13.95;52.70;101844.97;104806;1278;63284;-85
2022/10/11 08:55:49;;;;;;;11.40;6.20;;;;;;;14.02;50.88;101844.11;104745;1278;61339;-84
2022/10/11 08:58:36;;;;;;;15.00;6.70;;;;;;;14.14;51.14;101837.55;104720;1277;59179;-83
2022/10/11 09:01:13;;;;;;;12.70;6.90;;;;;;;14.14;51.08;101833.30;104690;1280;72738;-84
2022/10/11 09:03:46;;;;;;;15.70;7.70;;;;;;;14.30;51.61;101830.61;104629;1274;72518;-82
2022/10/11 09:06:35;;;;;;;15.20;7.40;;;;;;;14.44;50.48;101826.85;104576;1278;70348;-83
2022/10/11 09:09:48;;;;;;;16.30;5.90;;;;;;;14.68;49.85;101826.92;104659;1286;62968;-84
2022/10/11 09:13:06;;;;;;;13.70;7.60;;;;;;;14.74;49.21;101826.83;104607;1277;59176;-86
2022/10/11 09:15:56;;;;;;;15.90;6.40;;;;;;;14.73;48.85;101822.52;104673;1277;59099;-82
2022/10/11 09:18:39;;;;;;;18.60;7.30;;;;;;;14.87;48.83;101821.30;104778;1283;63248;-85
2022/10/11 09:21:34;;;;;;;12.50;6.50;;;;;;;15.12;49.32;101819.08;104676;1278;60853;-83
2022/10/11 09:24:24;;;;;;;13.50;6.80;;;;;;;15.25;48.08;101818.69;104603;1285;69942;-85
2022/10/11 09:26:58;;;;;;;17.80;6.60;;;;;;;15.42;47.98;101813.00;104721;1280;72913;-82
2022/10/11 09:29:51;;;;;;;12.80;5.70;;;;;;;15.50;46.69;101808.56;104550;1273;60223;-84
2022/10/11 09:32:27;;;;;;;12.90;5.60;;;;;;;15.64;46.94;101809.95;104911;1280;60124;-83
2022/10/11 09:35:10;;;;;;;14.10;5.40;;;;;;;15.77;47.65;101805.30;104621;1277;74189;-84
2022/10/11 09:38:02;;;;;;;15.80;6.00;;;;;;;15.94;47.44;101803.42;104972;1284;62927;-86
2022/10/11 09:40:51;;;;;;;11.00;5.60;;;;;;;16.10;45.41;101800.05;104953;1278;70106;-86
2022/10/11 09:43:21;;;;;;;11.70;5.30;;;;;;;16.21;45.55;101799.36;104914;1286;64098;-89
2022/10/11 09:45:50;;;;;;;16.20;5.70;;;;;;;16.33;45.82;101797.16;105209;1279;60851;-90
2022/10/11 09:48:27;;;;;;;12.10;5.90;;;;;;;16.42;45.76;101796.17;105024;1280;62116;-87
2022/10/11 09:51:13;;;;;;;7.10;4.70;;;;;;;16.50;44.64;101791.60;104909;1272;75091;-86
2022/10/11 09:53:58;;;;;;;8.80;4.40;;;;;;;16.59;44.03;101790.88;104689;1277;72317;-86
2022/10/11 09:56:30;;;;;;;10.10;4.50;;;;;;;16.50;43.80;101789.18;105377;1279;69286;-85
2022/10/11 09:59:29;;;;;;;10.80;5.10;;;;;;;16.48;43.64;101787.08;106584;1276;74843;-83
2022/10/11 10:02:13;;;;;;;12.70;4.70;;;;;;;16.64;44.04;101782.88;105192;1280;59022;-87
2022/10/11 10:04:58;;;;;;;6.90;4.20;;;;;;;16.70;43.18;101782.50;105853;1279;59123;-84
2022/10/11 10:07:30;;;;;;;8.20;4.00;;;;;;;16.67;43.50;101777.97;105303;1274;63886;-85
2022/10/11 10:10:34;;;;;;;15.20;5.00;;;;;;;16.79;43.29;101778.19;105321;1270;62590;-86
2022/10/11 10:13:26;;;;;;;7.90;3.40;;;;;;;17.02;43.13;101775.48;106090;1272;70577;-84
2022/10/11 10:16:13;;;;;;;10.60;4.40;;;;;;;17.35;42.55;101770.42;105245;1278;73708;-88
2022/10/11 10:19:20;;;;;;;10.10;4.30;;;;;;;17.45;40.86;101763.23;104727;1286;60326;-88
2022/10/11 10:22:35;;;;;;;7.70;3.70;;;;;;;17.95;43.04;101745.58;104702;1280;60140;-87
2022/10/11 10:25:49;;;;;;;10.90;4.40;;;;;;;18.25;39.89;101756.78;104729;1283;73555;-90
2022/10/11 10:29:25;;;;;;;12.30;5.20;;;;;;;18.60;39.25;101756.53;104720;1281;61264;-86
2022/10/11 10:31:58;;;;;;;7.40;3.60;;;;;;;18.58;37.82;101740.46;104794;1278;60114;-88
2022/10/11 10:35:25;;;;;;;6.30;2.90;;;;;;;18.78;37.15;101738.34;104681;1278;63667;-87
2022/10/11 10:38:28;;;;;;;9.20;3.10;;;;;;;19.55;37.84;101754.58;104813;1286;60836;-84
2022/10/11 10:41:02;;;;;;;5.80;2.10;;;;;;;19.89;36.45;101753.08;104896;1280;59119;-83
2022/10/11 10:43:38;;;;;;;6.10;2.30;;;;;;;19.47;36.54;101753.16;104940;1286;73401;-85
2022/10/11 10:46:10;;;;;;;8.50;3.00;;;;;;;19.94;36.02;101750.64;104923;1274;62080;-87
2022/10/11 10:48:57;;;;;;;5.10;2.40;;;;;;;19.70;34.90;101744.48;104980;1275;69800;-86
2022/10/11 10:52:42;;;;;;;7.80;2.70;;;;;;;19.99;35.42;101739.89;104793;1272;62822;-73
2022/10/11 10:55:35;;;;;;;7.20;3.60;;;;;;;20.32;34.50;101730.69;104850;1286;58405;-71
2022/10/11 10:58:14;;;;;;;6.40;2.80;;;;;;;20.17;34.29;101727.91;104808;1276;61289;-80
2022/10/11 11:00:55;;;;;;;5.90;2.60;;;;;;;20.52;33.91;101722.98;104841;1281;63512;-85
2022/10/11 11:03:43;;;;;;;12.10;2.50;;;;;;;20.15;34.06;101721.02;104685;1286;62917;-71
2022/10/11 11:06:37;;;;;;;8.30;5.20;;;;;;;20.77;33.77;101720.46;104753;1272;70339;-72
2022/10/11 11:09:40;;;;;;;5.50;2.50;;;;;;;21.72;32.89;101714.70;104914;1275;62699;-71
2022/10/11 11:12:21;;;;;;;6.00;2.30;;;;;;;21.35;32.08;101711.86;104752;1277;61617;-77
2022/10/11 11:15:09;;;;;;;4.10;2.40;;;;;;;21.78;32.25;101711.20;104850;1275;60562;-76
2022/10/11 11:18:19;;;;;;;7.40;2.70;;;;;;;21.59;31.65;101708.35;104806;1280;74510;-76
2022/10/11 11:21:09;;;;;;;5.50;2.30;;;;;;;21.51;31.88;101709.06;104815;1275;63904;-76
2022/10/11 11:23:43;;;;;;;5.00;2.10;;;;;;;21.57;32.51;101712.00;104871;1280;70575;-77
2022/10/11 11:26:34;;;;;;;4.50;2.10;;;;;;;21.87;31.27;101709.22;104865;1277;62829;-77
2022/10/11 11:29:40;;;;;;;5.20;2.40;;;;;;;22.37;30.95;101709.97;104805;1280;60450;-76
2022/10/11 11:32:23;;;;;;;4.60;1.80;;;;;;;22.36;30.59;101709.21;104826;1282;59166;-75
2022/10/11 11:35:41;;;;;;;3.50;1.90;;;;;;;23.27;29.95;101706.94;104874;1286;62207;-77
2022/10/11 11:38:37;;;;;;;4.10;2.20;;;;;;;23.49;29.40;101705.52;104830;1275;61694;-80
2022/10/11 11:41:18;;;;;;;9.10;2.20;;;;;;;23.11;29.72;101702.30;104822;1274;70487;-75
2022/10/11 11:44:05;;;;;;;3.10;1.90;;;;;;;23.34;29.36;101698.88;104814;1286;73649;-77
2022/10/11 11:46:42;;;;;;;4.50;2.10;;;;;;;22.83;29.39;101700.77;104794;1281;60825;-76
2022/10/11 11:49:28;;;;;;;6.90;2.10;;;;;;;22.95;29.67;101700.72;104824;1281;59140;-79
2022/10/11 11:51:58;;;;;;;5.40;2.20;;;;;;;22.36;30.36;101696.73;104833;1284;72747;-77
2022/10/11 11:54:52;;;;;;;7.70;3.10;;;;;;;22.30;30.46;101696.52;104823;1286;61456;-76
2022/10/11 11:58:08;;;;;;;4.80;2.40;;;;;;;22.94;30.07;101696.88;104799;1278;59905;-76
2022/10/11 12:01:17;;;;;;;4.90;2.80;;;;;;;23.35;29.99;101690.61;104887;1281;75220;-79